Latest Weather Observations for Maroochydore

IDQ60801

Issued at 8:02 am EST Friday 27 May 2016 (issued every 30 minutes, with the page automatically refreshed every 10 minutes)

About weather observations | Map of weather stations | Latest weather observations for QLD | Other Formats
Station Details ID: 040861 Name: SUNSHINE COAST AIRPORT Lat: -26.60 Lon: 153.09 Height: 3.3 m
Data from the previous 72 hours. | See also: Recent months at Maroochydore
Date/Time
EST
Temp
°C
App
Temp
°C
Dew
Point
Rel
Hum
%
Delta-T
°C
Wind Press
QNH
hPa
Press
MSL
hPa
Rain
since 9 am
mm
Dir
 
Spd
km/h
Gust
km/h
Spd
kts
Gust
kts
27/07:30am 20.1 21.0 18.4 90 1.1 NW 11 15 6 8 1008.9 - 0.2
27/07:00am 19.1 20.3 17.4 90 1.0 WNW 7 9 4 5 1008.1 - 0.2
27/06:30am 19.5 20.4 17.6 89 1.2 WNW 9 15 5 8 1007.9 - 0.2
27/06:00am 19.8 20.1 17.9 89 1.2 WNW 13 19 7 10 1007.5 1007.5 0.2
27/05:30am 19.8 20.2 18.1 90 1.1 NW 13 20 7 11 1007.1 - 0.2
27/05:00am 19.7 20.0 18.0 90 1.0 WNW 13 20 7 11 1007.2 - 0.2
27/04:30am 19.9 20.2 18.0 89 1.2 WNW 13 19 7 10 1007.1 - 0.2
27/04:00am 20.2 20.6 18.1 88 1.3 NW 13 19 7 10 1007.2 - 0.2
27/03:30am 20.1 20.9 18.2 89 1.2 NW 11 17 6 9 1007.1 - 0.2
27/03:00am 19.7 20.7 17.8 89 1.2 WNW 9 17 5 9 1007.7 1007.7 0.2
27/02:30am 19.6 20.0 18.1 91 0.9 N 13 17 7 9 1007.0 - 0.2
27/02:00am 19.5 19.1 18.0 91 0.9 N 17 19 9 10 1007.1 - 0.2
27/01:30am 19.3 20.3 17.8 91 0.9 N 9 13 5 7 1007.5 - 0.2
27/01:00am 19.7 20.1 18.2 91 0.9 NNW 13 15 7 8 1007.6 - 0.2
27/12:30am 19.9 19.9 18.0 89 1.2 NNW 15 20 8 11 1007.9 - 0.2
27/12:00am 19.7 19.7 18.0 90 1.1 N 15 19 8 10 1008.2 1008.2 0.2
 
Date/Time
EST
Temp
°C
App
Temp
°C
Dew
Point
Rel
Hum
%
Delta-T
°C
Wind Press
QNH
hPa
Press
MSL
hPa
Rain
since 9 am
mm
Dir
 
Spd
km/h
Gust
km/h
Spd
kts
Gust
kts
26/11:30pm 19.7 20.0 17.8 89 1.2 N 13 19 7 10 1008.8 - 0.2
26/11:00pm 20.0 20.3 18.0 88 1.2 N 13 20 7 11 1008.9 - 0.2
26/10:30pm 20.4 20.1 18.2 87 1.4 N 17 24 9 13 1009.0 - 0.2
26/10:00pm 20.7 20.1 18.5 87 1.4 NNW 19 30 10 16 1009.1 - 0.2
26/09:30pm 20.8 19.2 18.4 86 1.5 N 24 33 13 18 1009.0 - 0.2
26/09:00pm 21.0 19.3 18.2 84 1.7 NNW 24 37 13 20 1009.3 1009.3 0.2
26/08:30pm 21.0 19.3 18.2 84 1.7 NNW 24 32 13 17 1009.5 - 0.2
26/08:00pm 21.2 19.2 18.2 83 1.9 NNW 26 35 14 19 1009.6 - 0.2
26/07:30pm 21.4 19.8 18.4 83 1.9 NNW 24 35 13 19 1009.5 - 0.2
26/07:00pm 22.0 20.1 18.6 81 2.1 NNW 26 39 14 21 1009.2 - 0.2
26/06:30pm 22.0 20.5 18.6 81 2.1 NNW 24 32 13 17 1009.4 - 0.2
26/06:00pm 22.5 20.6 18.5 78 2.5 NNW 26 39 14 21 1009.1 1009.1 0.2
26/05:30pm 23.1 20.4 18.4 75 3.0 N 30 39 16 21 1008.7 - 0.2
26/05:00pm 23.1 21.8 18.2 74 3.1 N 22 32 12 17 1008.5 - 0.2
26/04:30pm 23.8 22.8 18.9 74 3.1 N 22 30 12 16 1008.6 - 0.2
26/04:00pm 24.6 23.2 19.7 74 3.2 N 26 39 14 21 1008.5 - 0.2
26/03:30pm 25.5 23.2 18.4 65 4.5 N 28 35 15 19 1008.7 - 0.2
26/03:00pm 27.6 24.9 13.5 41 8.4 N 20 24 11 13 1009.1 1009.1 0.2
26/02:30pm 28.1 24.9 12.0 36 9.3 NNW 20 30 11 16 1009.1 - 0.2
26/02:00pm 28.6 25.8 13.3 39 9.1 NNW 20 37 11 20 1009.4 - 0.2
26/01:30pm 28.1 24.2 12.0 36 9.3 NNW 24 35 13 19 1009.7 - 0.2
26/01:00pm 27.7 24.9 12.5 39 8.9 NW 19 28 10 15 1010.6 - 0.2
26/12:30pm 27.2 24.0 13.2 42 8.2 NNW 22 33 12 18 1011.4 - 0.2
26/12:00pm 27.0 24.4 13.7 44 7.9 NW 20 33 11 18 1012.1 1012.1 0.2
26/11:30am 25.8 22.6 14.3 49 6.8 NNW 24 39 13 21 1012.8 - 0.2
26/11:00am 25.5 23.6 14.3 50 6.7 NW 17 28 9 15 1013.9 - 0.2
26/10:30am 24.4 22.0 13.9 52 6.2 NW 19 28 10 15 1014.6 - 0.2
26/10:00am 22.9 20.3 13.7 56 5.3 NW 20 28 11 15 1015.2 - 0.2
26/09:30am 21.8 19.5 14.2 62 4.4 NW 19 30 10 16 1015.5 - 0.0
26/09:00am 20.5 19.0 15.3 72 3.1 NW 17 24 9 13 1015.7 1015.7 0.0
26/08:30am 18.5 17.8 15.4 82 1.8 NW 13 20 7 11 1015.8 - 0.0
26/08:00am 15.5 15.2 14.4 93 0.6 NW 9 13 5 7 1016.0 - 0.0
26/07:30am 12.0 12.4 11.2 95 0.4 CALM 0 2 0 1 1015.8 - 0.0
26/07:00am 10.4 8.3 9.6 95 0.4 NW 11 17 6 9 1015.6 - 0.0
26/06:30am 9.7 6.6 8.9 95 0.4 NW 15 20 8 11 1015.3 - 0.0
26/06:00am 9.4 6.7 8.8 96 0.3 NW 13 17 7 9 1015.3 1015.3 0.0
26/05:30am 9.4 5.9 8.8 96 0.3 NW 17 20 9 11 1015.3 - 0.0
26/05:00am 8.7 6.6 8.1 96 0.3 NW 9 13 5 7 1015.4 - 0.0
26/04:30am 9.0 6.5 8.4 96 0.3 WNW 11 13 6 7 1015.6 - 0.0
26/04:00am 9.3 6.5 8.7 96 0.3 W 13 13 7 7 1015.8 - 0.0
26/03:30am 9.0 6.2 8.4 96 0.3 W 13 15 7 8 1015.7 - 0.0
26/03:00am 8.6 5.7 8.0 96 0.3 W 13 15 7 8 1015.8 1015.8 0.0
26/02:30am 8.9 5.7 8.3 96 0.3 WNW 15 15 8 8 1016.0 - 0.0
26/02:00am 8.7 5.4 8.1 96 0.3 WNW 15 17 8 9 1016.1 - 0.0
26/01:30am 9.1 6.7 8.6 97 0.2 W 11 13 6 7 1016.4 - 0.0
26/01:00am 8.8 6.3 8.2 96 0.3 W 11 13 6 7 1016.6 - 0.0
26/12:30am 9.5 7.6 9.0 97 0.2 W 9 11 5 6 1016.7 - 0.0
26/12:00am 9.1 6.3 8.5 96 0.3 W 13 13 7 7 1017.0 1017.0 0.0
 
Date/Time
EST
Temp
°C
App
Temp
°C
Dew
Point
Rel
Hum
%
Delta-T
°C
Wind Press
QNH
hPa
Press
MSL
hPa
Rain
since 9 am
mm
Dir
 
Spd
km/h
Gust
km/h
Spd
kts
Gust
kts
25/11:30pm 8.8 6.6 8.0 95 0.4 W 9 11 5 6 1017.2 - 0.0
25/11:00pm 9.2 7.1 8.4 95 0.4 W 9 11 5 6 1017.3 - 0.0
25/10:30pm 9.3 6.8 8.4 94 0.4 WNW 11 13 6 7 1017.6 - 0.0
25/10:00pm 10.1 8.3 9.3 95 0.4 W 9 11 5 6 1017.6 - 0.0
25/09:30pm 9.8 8.2 8.7 93 0.5 W 7 11 4 6 1017.4 - 0.0
25/09:00pm 10.5 8.7 9.4 93 0.5 WSW 9 11 5 6 1017.5 1017.5 0.0
25/08:30pm 10.8 9.4 9.7 93 0.6 WSW 7 9 4 5 1017.5 - 0.0
25/08:00pm 11.0 9.3 9.9 93 0.6 W 9 11 5 6 1017.4 - 0.0
25/07:30pm 11.2 9.5 9.8 91 0.7 WNW 9 13 5 7 1017.0 - 0.0
25/07:00pm 12.1 11.2 10.8 92 0.7 WNW 6 7 3 4 1016.8 - 0.0
25/06:30pm 12.4 11.3 10.8 90 0.8 W 7 11 4 6 1016.4 - 0.0
25/06:00pm 13.4 13.6 10.6 83 1.5 CALM 0 0 0 0 1016.2 1016.2 0.0
25/05:30pm 15.5 16.0 11.5 77 2.2 CALM 0 0 0 0 1016.1 - 0.0
25/05:00pm 18.1 17.9 11.7 66 3.5 E 4 7 2 4 1015.8 - 0.0
25/04:30pm 19.8 18.1 11.3 58 4.7 ENE 11 15 6 8 1015.6 - 0.0
25/04:00pm 21.2 19.8 11.0 52 5.6 E 9 13 5 7 1015.5 - 0.0
25/03:30pm 22.0 20.2 10.8 49 6.2 E 11 15 6 8 1015.4 - 0.0
25/03:00pm 22.1 19.6 9.6 45 6.7 E 13 17 7 9 1015.4 1015.4 0.0
25/02:30pm 22.5 19.5 7.5 38 7.8 E 13 19 7 10 1015.4 - 0.0
25/02:00pm 23.0 19.7 6.3 34 8.5 ESE 13 17 7 9 1015.5 - 0.0
25/01:30pm 23.1 19.5 5.1 31 9.0 ESE 13 17 7 9 1015.8 - 0.0
25/01:00pm 23.3 19.3 2.7 26 9.8 SE 13 17 7 9 1016.1 - 0.0
25/12:30pm 23.1 18.9 1.4 24 10.1 E 13 17 7 9 1016.7 - 0.0
25/12:00pm 23.2 19.6 2.7 26 9.8 E 11 15 6 8 1017.2 1017.2 0.0
25/11:30am 23.0 19.4 0.8 23 10.2 E 9 15 5 8 1017.5 - 0.0
25/11:00am 22.5 19.8 3.6 29 9.1 ESE 7 11 4 6 1017.8 - 0.0
25/10:30am 21.9 20.1 7.3 39 7.5 SE 6 9 3 5 1017.9 - 0.0
25/10:00am 20.2 18.3 7.6 44 6.5 SSW 7 13 4 7 1018.1 - 0.0
25/09:30am 17.4 16.5 9.1 58 4.3 W 4 7 2 4 1018.2 - 0.0
25/09:00am 15.1 14.2 11.3 78 2.0 WSW 7 11 4 6 1017.8 1017.8 0.0
25/08:30am 13.2 12.4 11.6 90 0.9 W 7 9 4 5 1017.8 - 0.0
25/08:00am 11.6 10.1 10.7 94 0.5 W 9 13 5 7 1017.7 - 0.0
25/07:30am 10.0 8.3 9.7 98 0.2 W 9 11 5 6 1017.4 - 0.0
25/07:00am 7.8 5.5 7.4 97 0.2 W 9 11 5 6 1017.0 - 0.0
25/06:30am 7.6 4.9 7.2 97 0.2 WNW 11 15 6 8 1016.9 - 0.0
25/06:00am 8.3 5.0 8.0 98 0.1 WNW 15 19 8 10 1016.6 1016.6 0.0
25/05:30am 8.0 5.4 7.6 97 0.2 WNW 11 13 6 7 1016.5 - 0.0
25/05:00am 8.3 5.7 7.9 97 0.2 WNW 11 13 6 7 1016.3 - 0.0
25/04:58am 8.4 5.9 8.0 97 0.2 WNW 11 13 6 7 1016.2 - 0.0
25/04:36am 8.2 5.6 7.6 96 0.3 W 11 15 6 8 1016.2 - 0.0
25/04:30am 8.5 6.0 8.1 97 0.2 W 11 11 6 6 1016.3 - 0.0
25/04:02am 8.8 6.7 8.4 97 0.2 W 9 9 5 5 1016.3 - 0.0
25/04:00am 8.9 6.9 8.5 97 0.2 W 9 11 5 6 1016.3 - 0.0
25/03:46am 9.2 6.8 8.7 97 0.2 WNW 11 13 6 7 1016.3 - 0.0
25/03:44am 9.3 6.9 8.8 97 0.2 WNW 11 13 6 7 1016.3 - 0.0
25/03:30am 9.6 7.7 9.1 97 0.2 W 9 13 5 7 1016.5 - 0.0
25/03:00am 10.9 9.7 10.4 97 0.3 W 7 9 4 5 1016.7 1016.7 0.0
25/02:39am 10.9 8.6 10.4 97 0.3 W 13 15 7 8 1016.6 - 0.0
25/02:30am 11.5 9.4 11.0 97 0.3 WNW 13 15 7 8 1016.6 - 0.0
25/02:00am 11.1 9.6 10.6 97 0.3 WSW 9 11 5 6 1016.6 - 0.0
25/01:30am 12.0 11.1 11.5 97 0.3 W 7 9 4 5 1016.9 - 0.0
25/01:00am 12.7 12.1 12.2 97 0.3 W 7 9 4 5 1017.2 - 0.0
25/12:39am 12.6 11.2 12.1 97 0.3 W 11 11 6 6 1017.0 - 0.0
25/12:30am 12.9 11.6 12.4 97 0.3 W 11 11 6 6 1017.0 - 0.0
25/12:06am 13.6 12.9 13.1 97 0.3 W 9 11 5 6 1017.3 - 0.0
25/12:00am 12.9 11.9 12.4 97 0.3 W 9 11 5 6 1017.3 1017.3 0.0
 
Date/Time
EST
Temp
°C
App
Temp
°C
Dew
Point
Rel
Hum
%
Delta-T
°C
Wind Press
QNH
hPa
Press
MSL
hPa
Rain
since 9 am
mm
Dir
 
Spd
km/h
Gust
km/h
Spd
kts
Gust
kts
24/11:48pm 13.0 12.1 12.5 97 0.3 W 9 11 5 6 1017.3 - 0.0
24/11:30pm 12.9 11.9 12.3 96 0.3 W 9 11 5 6 1017.3 - 0.0
24/11:20pm 12.6 11.5 11.8 95 0.4 W 9 9 5 5 1017.3 - 0.0
24/11:10pm 12.9 11.9 12.3 96 0.3 W 9 9 5 5 1017.5 - 0.0
24/11:00pm 13.1 12.2 12.5 96 0.3 W 9 9 5 5 1017.5 - 0.0
24/10:41pm 13.2 12.7 12.6 96 0.3 W 7 7 4 4 1017.5 - 0.0
24/10:30pm 13.8 13.5 13.2 96 0.3 WSW 7 9 4 5 1017.7 - 0.0
24/10:00pm 13.8 13.0 13.0 95 0.4 W 9 11 5 6 1017.9 - 0.0
24/09:30pm 13.5 13.0 12.7 95 0.4 WSW 7 9 4 5 1017.9 - 0.0
24/09:00pm 13.7 13.2 12.6 93 0.6 W 7 7 4 4 1017.9 1017.9 0.0
24/08:30pm 14.3 14.0 13.2 93 0.6 W 7 9 4 5 1017.6 - 0.0
24/08:00pm 15.0 14.8 13.7 92 0.7 W 7 9 4 5 1017.4 - 0.0
24/07:30pm 15.3 15.1 13.5 89 1.0 W 7 9 4 5 1017.2 - 0.0
24/07:00pm 16.5 16.7 14.2 86 1.3 SW 6 9 3 5 1017.1 - 0.0
24/06:30pm 17.2 17.0 13.7 80 2.0 SSW 7 9 4 5 1016.6 - 0.0
24/06:00pm 20.2 20.0 14.8 71 3.2 ESE 9 13 5 7 1016.3 1016.3 0.0
24/05:30pm 20.7 20.1 14.6 68 3.6 ESE 11 15 6 8 1015.9 - 0.0
24/05:00pm 20.9 20.1 15.0 69 3.5 SE 13 17 7 9 1015.6 - 0.0
24/04:30pm 21.9 21.2 15.3 66 3.9 SE 13 19 7 10 1015.4 - 0.0
24/04:00pm 22.8 21.2 15.1 62 4.6 SE 17 20 9 11 1015.0 - 0.0
24/03:30pm 23.7 22.2 15.2 59 5.1 SE 17 24 9 13 1014.9 - 0.0
24/03:00pm 24.2 22.0 14.9 56 5.5 ESE 20 24 11 13 1014.8 1014.8 0.0
24/02:30pm 25.0 23.0 15.6 56 5.7 ESE 20 26 11 14 1014.8 - 0.0
24/02:00pm 24.6 22.8 16.1 59 5.2 SE 20 26 11 14 1014.7 - 0.0
24/01:30pm 24.6 22.5 15.2 55 5.6 SE 20 28 11 15 1014.8 - 0.0
24/01:00pm 25.2 23.1 16.3 57 5.5 SE 22 32 12 17 1015.0 - 0.0
24/12:30pm 25.2 22.7 15.2 54 6.0 SE 22 30 12 16 1015.4 - 0.0
24/12:00pm 25.8 23.5 15.8 54 6.1 SSE 22 30 12 16 1015.7 1015.7 0.0
24/11:30am 25.8 23.7 14.6 50 6.7 SSE 19 26 10 14 1016.2 - 0.0
24/11:00am 25.6 24.1 14.1 49 6.8 SSE 15 24 8 13 1016.7 - 0.0
24/10:30am 24.4 22.1 14.2 53 6.0 S 19 24 10 13 1017.1 - 0.0
24/10:00am 25.6 24.0 12.8 45 7.4 S 13 17 7 9 1017.2 - 0.0
24/09:30am 24.6 23.2 13.5 50 6.5 SW 13 19 7 10 1017.2 - 0.0
24/09:00am 22.3 22.4 16.6 70 3.5 WSW 11 13 6 7 1017.1 1017.1 0.0
24/08:30am 19.3 21.4 17.1 87 1.3 W 2 7 1 4 1017.1 - 0.0

Other Formats:

Comma delimited format used in spreadsheet applications
http://www.bom.gov.au/fwo/IDQ60801/IDQ60801.94569.axf

JavaScript Object Notation format (JSON) in row-major order
http://www.bom.gov.au/fwo/IDQ60801/IDQ60801.94569.json